createdAt,value
2022-10-02T00:01:17.249Z,98469.03
2022-10-02T00:04:26.675Z,98457.94
2022-10-02T00:07:35.315Z,98472.97
2022-10-02T00:10:44.823Z,98479.13
2022-10-02T00:13:50.761Z,98492.59
2022-10-02T00:16:57.135Z,98488.50
2022-10-02T00:20:02.305Z,98485.25
2022-10-02T00:23:12.115Z,98469.91
2022-10-02T00:26:19.982Z,98481.47
2022-10-02T00:29:32.197Z,98472.81
2022-10-02T00:32:41.404Z,98473.94
2022-10-02T00:36:03.989Z,98487.38
2022-10-02T00:39:16.874Z,98493.59
2022-10-02T00:42:50.431Z,98477.97
2022-10-02T00:46:13.524Z,98487.94
2022-10-02T00:49:40.383Z,98484.97
2022-10-02T00:52:59.927Z,98481.19
2022-10-02T00:56:19.976Z,98479.84
2022-10-02T00:59:44.721Z,98485.53
2022-10-02T01:03:01.856Z,98495.50
2022-10-02T01:06:04.896Z,98503.03
2022-10-02T01:09:09.053Z,98511.63
2022-10-02T01:12:12.845Z,98501.91
2022-10-02T01:15:18.414Z,98496.75
2022-10-02T01:18:21.793Z,98499.91
2022-10-02T01:21:34.666Z,98491.06
2022-10-02T01:24:49.337Z,98494.28
2022-10-02T01:27:54.054Z,98480.00
2022-10-02T01:31:02.981Z,98481.63
2022-10-02T01:34:06.354Z,98482.69
2022-10-02T01:37:10.202Z,98494.81
2022-10-02T01:40:29.513Z,98482.16
2022-10-02T01:43:35.741Z,98481.88
2022-10-02T01:46:42.543Z,98492.06
2022-10-02T01:50:01.298Z,98495.56
2022-10-02T01:53:12.262Z,98497.41
2022-10-02T01:56:24.232Z,98500.94
2022-10-02T01:59:41.222Z,98511.69
2022-10-02T02:02:53.005Z,98504.41
2022-10-02T02:06:01.074Z,98504.13
2022-10-02T02:09:10.792Z,98498.22
2022-10-02T02:12:23.168Z,98495.53
2022-10-02T02:15:30.920Z,98509.78
2022-10-02T02:18:40.447Z,98510.06
2022-10-02T02:21:48.329Z,98505.44
2022-10-02T02:24:56.471Z,98502.50
2022-10-02T02:28:04.396Z,98511.94
2022-10-02T02:31:09.961Z,98514.63
2022-10-02T02:34:18.206Z,98517.03
2022-10-02T02:37:25.142Z,98514.34
2022-10-02T02:40:32.263Z,98509.25
2022-10-02T02:43:44.035Z,98498.69
2022-10-02T02:47:05.315Z,98507.06
2022-10-02T02:50:13.389Z,98504.63
2022-10-02T02:53:20.167Z,98499.53
2022-10-02T02:56:24.928Z,98505.22
2022-10-02T02:59:33.978Z,98510.06
2022-10-02T03:02:37.084Z,98523.53
2022-10-02T03:05:44.778Z,98519.50
2022-10-02T03:08:50.312Z,98515.47
2022-10-02T03:12:02.508Z,98523.84
2022-10-02T03:15:26.575Z,98526.53
2022-10-02T03:18:55.783Z,98525.72
2022-10-02T03:22:06.559Z,98524.34
2022-10-02T03:25:14.924Z,98516.22
2022-10-02T03:28:43.471Z,98513.22
2022-10-02T03:31:48.212Z,98518.09
2022-10-02T03:34:51.910Z,98519.72
2022-10-02T03:37:58.583Z,98512.44
2022-10-02T03:41:01.562Z,98516.22
2022-10-02T03:44:04.421Z,98510.00
2022-10-02T03:47:11.594Z,98504.63
2022-10-02T03:50:14.678Z,98513.22
2022-10-02T03:53:20.125Z,98504.63
2022-10-02T03:56:37.906Z,98507.06
2022-10-02T03:59:46.139Z,98512.69
2022-10-02T04:02:55.239Z,98507.59
2022-10-02T04:06:03.283Z,98512.44
2022-10-02T04:09:11.646Z,98511.63
2022-10-02T04:12:17.643Z,98517.25
2022-10-02T04:15:25.648Z,98514.34
2022-10-02T04:18:36.400Z,98512.72
2022-10-02T04:21:47.916Z,98520.53
2022-10-02T04:24:55.799Z,98523.50
2022-10-02T04:28:02.477Z,98514.63
2022-10-02T04:31:12.863Z,98514.09
2022-10-02T04:34:17.585Z,98519.50
2022-10-02T04:37:57.156Z,98522.19
2022-10-02T04:41:14.646Z,98525.69
2022-10-02T04:44:35.912Z,98527.06
2022-10-02T04:47:57.314Z,98519.50
2022-10-02T04:51:13.755Z,98527.50
2022-10-02T04:54:35.751Z,98523.75
2022-10-02T04:57:54.802Z,98527.00
2022-10-02T05:01:09.270Z,98514.63
2022-10-02T05:04:28.992Z,98521.38
2022-10-02T05:07:54.015Z,98523.53
2022-10-02T05:11:14.986Z,98507.97
2022-10-02T05:14:44.115Z,98517.13
2022-10-02T05:18:09.121Z,98509.88
2022-10-02T05:21:53.468Z,98516.66
2022-10-02T05:25:12.783Z,98519.09
2022-10-02T05:28:35.554Z,98514.78
2022-10-02T05:31:51.830Z,98514.25
2022-10-02T05:35:11.615Z,98523.44
2022-10-02T05:38:29.345Z,98522.09
2022-10-02T05:41:43.005Z,98519.69
2022-10-02T05:44:50.328Z,98529.13
2022-10-02T05:47:57.593Z,98524.28
2022-10-02T05:51:11.958Z,98523.47
2022-10-02T05:54:25.938Z,98516.72
2022-10-02T05:57:34.251Z,98535.81
2022-10-02T06:00:41.554Z,98535.81
2022-10-02T06:03:49.876Z,98536.09
2022-10-02T06:07:10.667Z,98538.50
2022-10-02T06:10:20.073Z,98541.47
2022-10-02T06:13:35.686Z,98548.75
2022-10-02T06:16:46.073Z,98551.44
2022-10-02T06:19:56.325Z,98543.88
2022-10-02T06:23:07.584Z,98539.31
2022-10-02T06:26:15.944Z,98541.72
2022-10-02T06:29:27.401Z,98526.09
2022-10-02T06:32:36.230Z,98520.69
2022-10-02T06:35:55.155Z,98526.38
2022-10-02T06:39:24.152Z,98513.19
2022-10-02T06:42:37.310Z,98509.41
2022-10-02T06:45:50.570Z,98499.16
2022-10-02T06:48:58.391Z,98503.72
2022-10-02T06:52:13.435Z,98514.25
2022-10-02T06:55:35.224Z,98501.78
2022-10-02T06:58:57.261Z,98502.84
2022-10-02T07:02:14.192Z,98496.91
2022-10-02T07:05:40.878Z,98490.75
2022-10-02T07:09:18.514Z,98498.53
2022-10-02T07:12:35.315Z,98496.66
2022-10-02T07:16:09.414Z,98483.97
2022-10-02T07:19:35.791Z,98469.16
2022-10-02T07:22:51.551Z,98468.34
2022-10-02T07:26:15.419Z,98473.19
2022-10-02T07:29:33.254Z,98473.19
2022-10-02T07:32:49.243Z,98477.97
2022-10-02T07:35:59.154Z,98468.31
2022-10-02T07:39:11.420Z,98470.47
2022-10-02T07:42:50.444Z,98471.00
2022-10-02T07:45:59.776Z,98468.84
2022-10-02T07:49:20.986Z,98469.06
2022-10-02T07:52:33.563Z,98459.84
2022-10-02T07:55:42.315Z,98463.28
2022-10-02T07:58:53.819Z,98467.84
2022-10-02T08:02:00.696Z,98451.69
2022-10-02T08:05:08.095Z,98473.84
2022-10-02T08:08:17.499Z,98457.66
2022-10-02T08:11:28.090Z,98447.13
2022-10-02T08:14:38.286Z,98472.97
2022-10-02T08:17:46.885Z,98452.22
2022-10-02T08:20:50.609Z,98446.50
2022-10-02T08:24:00.484Z,98439.34
2022-10-02T08:27:10.280Z,98447.78
2022-10-02T08:30:14.682Z,98466.84
2022-10-02T08:33:20.463Z,98448.28
2022-10-02T08:36:41.506Z,98441.53
2022-10-02T08:40:17.838Z,98433.69
2022-10-02T08:43:47.383Z,98433.91
2022-10-02T08:47:13.610Z,98438.22
2022-10-02T08:50:36.209Z,98433.25
2022-10-02T08:54:16.607Z,98426.72
2022-10-02T08:57:53.287Z,98416.59
2022-10-02T09:01:10.027Z,98408.09
2022-10-02T09:04:49.309Z,98412.03
2022-10-02T09:08:28.351Z,98403.34
2022-10-02T09:12:25.109Z,98404.50
2022-10-02T09:15:44.578Z,98403.28
2022-10-02T09:18:59.962Z,98399.56
2022-10-02T09:22:22.305Z,98403.44
2022-10-02T09:25:37.301Z,98401.91
2022-10-02T09:29:09.990Z,98418.59
2022-10-02T09:33:07.739Z,98400.44
2022-10-02T09:36:45.026Z,98406.84
2022-10-02T09:40:20.921Z,98406.63
2022-10-02T09:43:51.705Z,98403.44
2022-10-02T09:47:30.969Z,98398.25
2022-10-02T09:51:12.798Z,98411.22
2022-10-02T09:54:51.770Z,98412.31
2022-10-02T09:58:30.928Z,98419.09
2022-10-02T10:02:23.330Z,98420.78
2022-10-02T10:06:03.514Z,98427.56
2022-10-02T10:09:36.454Z,98438.44
2022-10-02T10:13:12.321Z,98430.09
2022-10-02T10:16:38.222Z,98434.09
2022-10-02T10:20:17.172Z,98432.75
2022-10-02T10:23:49.653Z,98425.22
2022-10-02T10:27:20.832Z,98422.66
2022-10-02T10:30:57.427Z,98416.84
2022-10-02T10:34:28.300Z,98423.56
2022-10-02T10:38:14.085Z,98416.53
2022-10-02T10:41:45.218Z,98451.91
2022-10-02T10:45:08.647Z,98442.50
2022-10-02T10:48:28.431Z,98447.75
2022-10-02T10:51:35.218Z,98442.94
2022-10-02T10:55:04.138Z,98441.34
2022-10-02T10:58:21.189Z,98427.34
2022-10-02T11:01:38.494Z,98441.56
2022-10-02T11:05:01.428Z,98460.75
2022-10-02T11:08:25.726Z,98462.94
2022-10-02T11:11:39.779Z,98457.31
2022-10-02T11:15:01.225Z,98470.81
2022-10-02T11:18:26.453Z,98482.31
2022-10-02T11:21:59.639Z,98478.53
2022-10-02T11:25:21.824Z,98469.88
2022-10-02T11:28:51.368Z,98453.22
2022-10-02T11:32:21.067Z,98467.50
2022-10-02T11:35:33.391Z,98454.53
2022-10-02T11:39:18.323Z,98448.91
2022-10-02T11:42:34.435Z,98457.03
2022-10-02T11:45:55.416Z,98460.22
2022-10-02T11:49:32.578Z,98460.75
2022-10-02T11:52:51.754Z,98452.34
2022-10-02T11:56:11.666Z,98441.78
2022-10-02T11:59:34.864Z,98454.19
2022-10-02T12:02:42.817Z,98444.69
2022-10-02T12:05:55.746Z,98444.69
2022-10-02T12:09:11.391Z,98444.69
2022-10-02T12:12:35.512Z,98433.63
2022-10-02T12:15:45.178Z,98433.91
2022-10-02T12:19:01.150Z,98431.66
2022-10-02T12:22:45.267Z,98436.31
2022-10-02T12:26:14.443Z,98437.41
2022-10-02T12:29:27.685Z,98438.28
2022-10-02T12:32:50.990Z,98439.16
2022-10-02T12:36:34.681Z,98455.34
2022-10-02T12:39:45.337Z,98461.56
2022-10-02T12:43:20.678Z,98466.13
2022-10-02T12:46:48.699Z,98466.69
2022-10-02T12:50:04.274Z,98465.09
2022-10-02T12:53:37.387Z,98461.59
2022-10-02T12:57:38.917Z,98463.22
2022-10-02T13:01:05.461Z,98468.53
2022-10-02T13:04:41.891Z,98469.34
2022-10-02T13:08:11.550Z,98464.81
2022-10-02T13:11:27.707Z,98464.31
2022-10-02T13:14:55.001Z,98472.91
2022-10-02T13:18:13.677Z,98500.41
2022-10-02T13:21:26.194Z,98471.06
2022-10-02T13:24:45.966Z,98482.94
2022-10-02T13:28:04.582Z,98462.00
2022-10-02T13:31:21.188Z,98464.13
2022-10-02T13:34:42.289Z,98465.44
2022-10-02T13:38:01.518Z,98464.91
2022-10-02T13:41:17.057Z,98469.56
2022-10-02T13:44:36.679Z,98467.97
2022-10-02T13:47:46.819Z,98476.38
2022-10-02T13:50:59.388Z,98470.16
2022-10-02T13:54:53.634Z,98468.84
2022-10-02T13:58:15.632Z,98486.13
2022-10-02T14:01:37.275Z,98493.41
2022-10-02T14:04:57.022Z,98489.09
2022-10-02T14:08:19.490Z,98477.75
2022-10-02T14:11:39.377Z,98483.94
2022-10-02T14:15:01.771Z,98475.25
2022-10-02T14:18:27.664Z,98477.44
2022-10-02T14:21:36.947Z,98470.38
2022-10-02T14:25:04.851Z,98461.47
2022-10-02T14:28:33.266Z,98445.59
2022-10-02T14:32:00.618Z,98449.63
2022-10-02T14:35:36.944Z,98444.00
2022-10-02T14:38:56.377Z,98450.19
2022-10-02T14:42:29.574Z,98442.09
2022-10-02T14:46:00.784Z,98449.41
2022-10-02T14:49:43.589Z,98467.16
2022-10-02T14:53:16.481Z,98459.59
2022-10-02T14:56:43.835Z,98460.41
2022-10-02T15:00:04.257Z,98474.19
2022-10-02T15:03:36.909Z,98484.47
2022-10-02T15:06:59.011Z,98477.53
2022-10-02T15:10:09.961Z,98477.56
2022-10-02T15:13:27.075Z,98464.66
2022-10-02T15:17:01.741Z,98473.59
2022-10-02T15:20:22.339Z,98475.50
2022-10-02T15:23:42.431Z,98481.19
2022-10-02T15:26:56.195Z,98487.59
2022-10-02T15:30:15.541Z,98476.25
2022-10-02T15:33:28.447Z,98486.28
2022-10-02T15:36:51.014Z,98484.69
2022-10-02T15:40:21.290Z,98503.84
2022-10-02T15:43:39.624Z,98519.22
2022-10-02T15:46:54.673Z,98524.69
2022-10-02T15:50:21.950Z,98530.09
2022-10-02T15:53:52.183Z,98526.34
2022-10-02T15:57:14.087Z,98509.91
2022-10-02T16:00:20.722Z,98506.19
2022-10-02T16:03:33.534Z,98518.88
2022-10-02T16:06:58.418Z,98526.16
2022-10-02T16:10:19.657Z,98528.28
2022-10-02T16:13:47.178Z,98530.16
2022-10-02T16:17:12.181Z,98530.16
2022-10-02T16:20:59.100Z,98536.94
2022-10-02T16:24:20.301Z,98533.16
2022-10-02T16:27:46.961Z,98527.78
2022-10-02T16:31:17.808Z,98529.94
2022-10-02T16:34:41.564Z,98526.22
2022-10-02T16:37:49.385Z,98541.03
2022-10-02T16:40:59.982Z,98540.53
2022-10-02T16:44:25.488Z,98548.38
2022-10-02T16:47:35.529Z,98552.16
2022-10-02T16:51:05.776Z,98554.56
2022-10-02T16:54:22.682Z,98551.88
2022-10-02T16:57:50.253Z,98574.22
2022-10-02T17:00:59.847Z,98584.47
2022-10-02T17:04:20.658Z,98593.09
2022-10-02T17:07:32.734Z,98603.88
2022-10-02T17:10:55.654Z,98617.56
2022-10-02T17:14:13.397Z,98609.03
2022-10-02T17:17:27.151Z,98614.69
2022-10-02T17:20:36.023Z,98599.38
2022-10-02T17:23:51.324Z,98606.69
2022-10-02T17:27:08.771Z,98614.22
2022-10-02T17:30:21.595Z,98625.53
2022-10-02T17:33:32.668Z,98627.41
2022-10-02T17:36:38.930Z,98626.06
2022-10-02T17:40:03.411Z,98636.63
2022-10-02T17:43:18.421Z,98632.81
2022-10-02T17:46:40.154Z,98644.69
2022-10-02T17:49:58.114Z,98653.59
2022-10-02T17:53:35.141Z,98662.97
2022-10-02T17:56:53.025Z,98662.97
2022-10-02T18:00:09.426Z,98663.78
2022-10-02T18:03:30.730Z,98665.72
2022-10-02T18:06:46.822Z,98666.28
2022-10-02T18:10:03.405Z,98672.47
2022-10-02T18:13:27.669Z,98664.97
2022-10-02T18:16:36.556Z,98663.06
2022-10-02T18:19:52.732Z,98660.88
2022-10-02T18:23:20.067Z,98669.78
2022-10-02T18:26:40.302Z,98675.16
2022-10-02T18:30:08.714Z,98674.91
2022-10-02T18:33:31.991Z,98674.41
2022-10-02T18:36:51.750Z,98679.78
2022-10-02T18:40:16.892Z,98674.69
2022-10-02T18:43:35.230Z,98686.03
2022-10-02T18:46:50.373Z,98686.31
2022-10-02T18:50:08.254Z,98683.91
2022-10-02T18:53:38.077Z,98708.41
2022-10-02T18:56:52.564Z,98729.41
2022-10-02T19:00:04.405Z,98730.72
2022-10-02T19:03:24.457Z,98722.94
2022-10-02T19:06:32.462Z,98708.69
2022-10-02T19:09:39.349Z,98704.84
2022-10-02T19:12:49.854Z,98697.06
2022-10-02T19:15:58.918Z,98689.81
2022-10-02T19:19:12.358Z,98705.19
2022-10-02T19:22:24.463Z,98703.53
2022-10-02T19:25:30.320Z,98712.44
2022-10-02T19:28:48.480Z,98715.13
2022-10-02T19:31:56.224Z,98718.41
2022-10-02T19:35:06.677Z,98717.06
2022-10-02T19:38:17.367Z,98718.94
2022-10-02T19:41:23.124Z,98730.81
2022-10-02T19:44:33.441Z,98736.72
2022-10-02T19:47:43.166Z,98749.66
2022-10-02T19:50:51.926Z,98753.69
2022-10-02T19:54:02.302Z,98760.97
2022-10-02T19:57:13.614Z,98764.47
2022-10-02T20:00:21.363Z,98776.59
2022-10-02T20:03:27.631Z,98783.84
2022-10-02T20:06:38.023Z,98787.88
2022-10-02T20:09:49.434Z,98787.09
2022-10-02T20:13:00.193Z,98797.59
2022-10-02T20:16:30.377Z,98796.00
2022-10-02T20:19:36.953Z,98795.72
2022-10-02T20:22:45.228Z,98800.56
2022-10-02T20:25:53.297Z,98808.63
2022-10-02T20:29:01.393Z,98810.00
2022-10-02T20:32:12.808Z,98819.41
2022-10-02T20:35:19.454Z,98823.72
2022-10-02T20:38:28.466Z,98836.13
2022-10-02T20:41:36.636Z,98839.59
2022-10-02T20:44:39.649Z,98838.81
2022-10-02T20:48:13.496Z,98839.63
2022-10-02T20:51:22.110Z,98853.91
2022-10-02T20:54:44.387Z,98857.69
2022-10-02T20:58:08.662Z,98860.09
2022-10-02T21:01:17.957Z,98862.00
2022-10-02T21:05:05.458Z,98865.72
2022-10-02T21:08:30.958Z,98868.44
2022-10-02T21:12:09.823Z,98881.31
2022-10-02T21:15:47.736Z,98888.31
2022-10-02T21:19:24.850Z,98890.19
2022-10-02T21:22:57.398Z,98899.84
2022-10-02T21:26:36.955Z,98903.59
2022-10-02T21:29:59.651Z,98903.03
2022-10-02T21:33:07.029Z,98912.47
2022-10-02T21:36:17.102Z,98919.44
2022-10-02T21:43:50.131Z,98915.97
2022-10-02T21:47:26.238Z,98916.00
2022-10-02T21:51:13.992Z,98920.84
2022-10-02T21:54:56.017Z,98926.25
2022-10-02T21:58:31.360Z,98932.16
2022-10-02T22:02:08.393Z,98926.25
2022-10-02T22:05:33.424Z,98926.00
2022-10-02T22:08:54.865Z,98936.50
2022-10-02T22:12:30.829Z,98937.03
2022-10-02T22:15:44.364Z,98937.88
2022-10-02T22:18:54.434Z,98937.31
2022-10-02T22:22:18.418Z,98943.25
2022-10-02T22:25:35.192Z,98945.66
2022-10-02T22:28:44.937Z,98941.09
2022-10-02T22:32:28.042Z,98941.38
2022-10-02T22:35:41.252Z,98947.28
2022-10-02T22:38:48.001Z,98955.91
2022-10-02T22:41:57.437Z,98954.00
2022-10-02T22:45:06.651Z,98950.25
2022-10-02T22:48:16.241Z,98959.38
2022-10-02T22:51:23.470Z,98963.94
2022-10-02T22:54:33.909Z,98961.81
2022-10-02T22:57:41.838Z,98963.41
2022-10-02T23:00:58.401Z,98976.59
2022-10-02T23:04:07.730Z,98972.53
2022-10-02T23:07:16.438Z,98971.44
2022-10-02T23:10:29.915Z,98985.72
2022-10-02T23:13:37.618Z,98984.38
2022-10-02T23:16:49.055Z,98982.50
2022-10-02T23:20:00.529Z,98976.06
2022-10-02T23:23:14.388Z,98976.63
2022-10-02T23:26:20.762Z,98980.66
2022-10-02T23:29:31.736Z,98982.81
2022-10-02T23:32:43.605Z,98989.00
2022-10-02T23:35:53.057Z,98987.13
2022-10-02T23:39:05.893Z,98989.25
2022-10-02T23:42:16.633Z,98991.16
2022-10-02T23:45:25.996Z,98980.38
2022-10-02T23:48:31.003Z,98986.59
2022-10-02T23:51:48.409Z,98979.56
2022-10-02T23:55:03.433Z,98988.97
2022-10-02T23:58:24.110Z,98989.53
